createdAt,value
2024-03-26T00:00:56.534Z,980.77
2024-03-26T00:01:56.549Z,980.76
2024-03-26T00:02:56.499Z,980.74
2024-03-26T00:03:56.506Z,980.75
2024-03-26T00:04:56.489Z,980.75
2024-03-26T00:05:56.467Z,980.71
2024-03-26T00:06:56.492Z,980.70
2024-03-26T00:07:56.469Z,980.69
2024-03-26T00:08:56.443Z,980.69
2024-03-26T00:09:56.424Z,980.68
2024-03-26T00:10:56.437Z,980.67
2024-03-26T00:11:56.433Z,980.67
2024-03-26T00:12:56.400Z,980.68
2024-03-26T00:13:56.382Z,980.67
2024-03-26T00:14:56.379Z,980.65
2024-03-26T00:15:56.387Z,980.63
2024-03-26T00:16:56.366Z,980.61
2024-03-26T00:17:56.349Z,980.58
2024-03-26T00:18:56.342Z,980.57
2024-03-26T00:19:56.323Z,980.58
2024-03-26T00:20:56.341Z,980.56
2024-03-26T00:21:56.312Z,980.55
2024-03-26T00:22:56.301Z,980.52
2024-03-26T00:23:56.288Z,980.51
2024-03-26T00:24:56.302Z,980.51
2024-03-26T00:25:56.291Z,980.52
2024-03-26T00:26:56.271Z,980.52
2024-03-26T00:27:56.243Z,980.52
2024-03-26T00:28:56.252Z,980.52
2024-03-26T00:29:56.248Z,980.51
2024-03-26T00:30:56.228Z,980.49
2024-03-26T00:31:56.205Z,980.49
2024-03-26T00:32:56.199Z,980.47
2024-03-26T00:33:56.217Z,980.46
2024-03-26T00:34:56.202Z,980.45
2024-03-26T00:35:56.166Z,980.44
2024-03-26T00:36:56.167Z,980.43
2024-03-26T00:37:56.145Z,980.41
2024-03-26T00:38:56.161Z,980.40
2024-03-26T00:39:56.140Z,980.38
2024-03-26T00:40:56.122Z,980.37
2024-03-26T00:41:56.111Z,980.36
2024-03-26T00:42:56.102Z,980.36
2024-03-26T00:43:56.103Z,980.35
2024-03-26T00:44:56.082Z,980.33
2024-03-26T00:45:56.066Z,980.32
2024-03-26T00:46:56.062Z,980.31
2024-03-26T00:47:56.073Z,980.31
2024-03-26T00:48:56.068Z,980.31
2024-03-26T00:49:56.026Z,980.30
2024-03-26T00:50:56.021Z,980.29
2024-03-26T00:51:56.005Z,980.28
2024-03-26T00:52:56.017Z,980.28
2024-03-26T00:53:55.985Z,980.28
2024-03-26T00:54:55.979Z,980.27
2024-03-26T00:55:55.970Z,980.27
2024-03-26T00:56:55.981Z,980.26
2024-03-26T00:57:55.961Z,980.25
2024-03-26T00:58:55.941Z,980.24
2024-03-26T00:59:55.940Z,980.23
2024-03-26T01:00:55.927Z,980.22
2024-03-26T01:01:55.926Z,980.20
2024-03-26T01:02:55.919Z,980.18
2024-03-26T01:03:55.891Z,980.17
2024-03-26T01:04:55.882Z,980.16
2024-03-26T01:05:55.875Z,980.14
2024-03-26T01:06:55.883Z,980.13
2024-03-26T01:07:55.845Z,980.12
2024-03-26T01:08:55.842Z,980.12
2024-03-26T01:09:55.833Z,980.10
2024-03-26T01:10:55.831Z,980.11
2024-03-26T01:11:55.873Z,980.09
2024-03-26T01:12:55.807Z,980.08
2024-03-26T01:13:55.788Z,980.07
2024-03-26T01:14:55.797Z,980.07
2024-03-26T01:15:55.769Z,980.07
2024-03-26T01:16:56.144Z,980.08
2024-03-26T01:17:55.767Z,980.08
2024-03-26T01:18:55.747Z,980.07
2024-03-26T01:19:55.731Z,980.06
2024-03-26T01:20:56.400Z,980.07
2024-03-26T01:21:55.745Z,980.06
2024-03-26T01:22:55.706Z,980.05
2024-03-26T01:23:55.686Z,980.02
2024-03-26T01:24:55.685Z,980.01
2024-03-26T01:25:55.682Z,980.01
2024-03-26T01:26:55.666Z,980.00
2024-03-26T01:27:55.666Z,980.00
2024-03-26T01:28:55.659Z,979.98
2024-03-26T01:29:55.655Z,979.96
2024-03-26T01:30:56.479Z,979.94
2024-03-26T01:31:55.618Z,979.94
2024-03-26T01:32:55.608Z,979.92
2024-03-26T01:33:55.615Z,979.90
2024-03-26T01:34:55.618Z,979.91
2024-03-26T01:35:55.574Z,979.91
2024-03-26T01:36:55.565Z,979.89
2024-03-26T01:37:55.550Z,979.87
2024-03-26T01:38:55.552Z,979.86
2024-03-26T01:39:55.547Z,979.85
2024-03-26T01:40:55.535Z,979.85
2024-03-26T01:41:55.510Z,979.83
2024-03-26T01:42:55.501Z,979.84
2024-03-26T01:43:55.502Z,979.83
2024-03-26T01:44:55.500Z,979.83
2024-03-26T01:45:55.469Z,979.82
2024-03-26T01:46:55.471Z,979.83
2024-03-26T01:47:55.449Z,979.83
2024-03-26T01:48:55.479Z,979.80
2024-03-26T01:49:55.432Z,979.81
2024-03-26T01:50:55.436Z,979.82
2024-03-26T01:51:55.429Z,979.81
2024-03-26T01:52:55.400Z,979.82
2024-03-26T01:53:55.414Z,979.80
2024-03-26T01:54:55.379Z,979.81
2024-03-26T01:55:55.376Z,979.82
2024-03-26T01:56:55.359Z,979.82
2024-03-26T01:57:55.370Z,979.82
2024-03-26T01:58:55.384Z,979.81
2024-03-26T01:59:55.335Z,979.80
2024-03-26T02:00:55.328Z,979.79
2024-03-26T02:01:55.317Z,979.78
2024-03-26T02:02:55.396Z,979.75
2024-03-26T02:03:55.299Z,979.77
2024-03-26T02:04:55.281Z,979.75
2024-03-26T02:05:55.274Z,979.75
2024-03-26T02:06:55.262Z,979.73
2024-03-26T02:07:55.408Z,979.70
2024-03-26T02:08:55.244Z,979.69
2024-03-26T02:09:55.235Z,979.68
2024-03-26T02:10:55.231Z,979.68
2024-03-26T02:11:55.235Z,979.66
2024-03-26T02:12:55.228Z,979.66
2024-03-26T02:13:55.192Z,979.66
2024-03-26T02:14:55.176Z,979.65
2024-03-26T02:15:55.179Z,979.64
2024-03-26T02:16:55.174Z,979.61
2024-03-26T02:17:55.157Z,979.58
2024-03-26T02:18:55.137Z,979.59
2024-03-26T02:19:55.136Z,979.60
2024-03-26T02:20:55.117Z,979.57
2024-03-26T02:21:55.144Z,979.56
2024-03-26T02:22:55.100Z,979.53
2024-03-26T02:23:55.094Z,979.52
2024-03-26T02:24:55.083Z,979.49
2024-03-26T02:25:55.098Z,979.49
2024-03-26T02:26:55.089Z,979.47
2024-03-26T02:27:55.061Z,979.45
2024-03-26T02:28:55.037Z,979.45
2024-03-26T02:29:55.033Z,979.44
2024-03-26T02:30:55.039Z,979.43
2024-03-26T02:31:55.017Z,979.41
2024-03-26T02:32:55.040Z,979.40
2024-03-26T02:33:55.039Z,979.39
2024-03-26T02:34:55.031Z,979.38
2024-03-26T02:35:54.996Z,979.37
2024-03-26T02:36:54.961Z,979.36
2024-03-26T02:37:54.959Z,979.35
2024-03-26T02:38:54.943Z,979.33
2024-03-26T02:39:54.950Z,979.33
2024-03-26T02:40:54.957Z,979.32
2024-03-26T02:41:54.916Z,979.30
2024-03-26T02:42:54.902Z,979.26
2024-03-26T02:43:54.900Z,979.23
2024-03-26T02:44:54.903Z,979.21
2024-03-26T02:45:54.877Z,979.20
2024-03-26T02:46:54.884Z,979.18
2024-03-26T02:47:54.864Z,979.16
2024-03-26T02:48:54.854Z,979.14
2024-03-26T02:49:54.858Z,979.12
2024-03-26T02:50:54.822Z,979.10
2024-03-26T02:51:54.821Z,979.08
2024-03-26T02:52:54.807Z,979.05
2024-03-26T02:53:54.835Z,979.05
2024-03-26T02:54:54.803Z,979.03
2024-03-26T02:55:54.796Z,979.01
2024-03-26T02:56:54.769Z,978.97
2024-03-26T02:57:54.789Z,978.95
2024-03-26T02:58:54.763Z,978.91
2024-03-26T02:59:54.742Z,978.88
2024-03-26T03:00:54.721Z,978.84
2024-03-26T03:01:54.724Z,978.80
2024-03-26T03:02:54.738Z,978.76
2024-03-26T03:03:54.725Z,978.74
2024-03-26T03:04:54.683Z,978.72
2024-03-26T03:05:54.677Z,978.70
2024-03-26T03:06:54.662Z,978.69
2024-03-26T03:07:54.672Z,978.69
2024-03-26T03:08:54.657Z,978.68
2024-03-26T03:09:54.636Z,978.64
2024-03-26T03:10:54.622Z,978.62
2024-03-26T03:11:54.620Z,978.61
2024-03-26T03:12:54.641Z,978.61
2024-03-26T03:13:54.600Z,978.61
2024-03-26T03:14:54.586Z,978.58
2024-03-26T03:15:54.580Z,978.56
2024-03-26T03:16:54.589Z,978.54
2024-03-26T03:17:54.583Z,978.53
2024-03-26T03:18:54.547Z,978.53
2024-03-26T03:19:54.541Z,978.53
2024-03-26T03:20:54.519Z,978.51
2024-03-26T03:21:54.528Z,978.53
2024-03-26T03:22:54.525Z,978.53
2024-03-26T03:23:54.506Z,978.53
2024-03-26T03:24:54.485Z,978.52
2024-03-26T03:25:54.482Z,978.51
2024-03-26T03:26:54.472Z,978.49
2024-03-26T03:27:54.480Z,978.50
2024-03-26T03:28:54.445Z,978.49
2024-03-26T03:29:54.441Z,978.46
2024-03-26T03:30:54.425Z,978.47
2024-03-26T03:31:54.435Z,978.47
2024-03-26T03:32:54.401Z,978.46
2024-03-26T03:33:54.402Z,978.48
2024-03-26T03:34:54.393Z,978.47
2024-03-26T03:35:54.374Z,978.46
2024-03-26T03:36:55.059Z,978.44
2024-03-26T03:37:54.370Z,978.43
2024-03-26T03:38:54.345Z,978.42
2024-03-26T03:39:54.362Z,978.41
2024-03-26T03:40:54.338Z,978.41
2024-03-26T03:41:54.341Z,978.41
2024-03-26T03:42:54.302Z,978.39
2024-03-26T03:43:54.306Z,978.36
2024-03-26T03:44:54.285Z,978.32
2024-03-26T03:45:54.303Z,978.34
2024-03-26T03:46:54.268Z,978.34
2024-03-26T03:47:54.258Z,978.31
2024-03-26T03:48:54.253Z,978.28
2024-03-26T03:49:54.242Z,978.29
2024-03-26T03:50:54.247Z,978.28
2024-03-26T03:51:54.223Z,978.28
2024-03-26T03:52:54.204Z,978.26
2024-03-26T03:53:54.568Z,978.22
2024-03-26T03:54:54.185Z,978.21
2024-03-26T03:55:54.200Z,978.20
2024-03-26T03:56:54.163Z,978.15
2024-03-26T03:57:54.165Z,978.13
2024-03-26T03:58:54.158Z,978.12
2024-03-26T03:59:54.662Z,978.10
2024-03-26T04:00:54.150Z,978.07
2024-03-26T04:01:54.128Z,978.06
2024-03-26T04:02:54.114Z,978.06
2024-03-26T04:03:54.107Z,978.08
2024-03-26T04:04:54.123Z,978.08
2024-03-26T04:05:54.080Z,978.09
2024-03-26T04:06:54.066Z,978.09
2024-03-26T04:07:54.063Z,978.09
2024-03-26T04:08:54.050Z,978.08
2024-03-26T04:09:54.057Z,978.08
2024-03-26T04:10:54.027Z,978.08
2024-03-26T04:11:55.405Z,978.08
2024-03-26T04:12:54.008Z,978.08
2024-03-26T04:13:54.018Z,978.08
2024-03-26T04:14:54.007Z,978.07
2024-03-26T04:15:53.982Z,978.05
2024-03-26T04:16:53.966Z,978.04
2024-03-26T04:17:53.959Z,978.02
2024-03-26T04:18:53.977Z,978.03
2024-03-26T04:19:53.940Z,978.04
2024-03-26T04:20:53.923Z,978.04
2024-03-26T04:21:53.925Z,978.03
2024-03-26T04:22:53.921Z,978.03
2024-03-26T04:23:53.917Z,978.01
2024-03-26T04:24:53.884Z,978.02
2024-03-26T04:25:53.875Z,978.01
2024-03-26T04:26:53.810Z,978.00
2024-03-26T04:27:53.876Z,977.97
2024-03-26T04:28:53.844Z,977.92
2024-03-26T04:29:53.877Z,977.90
2024-03-26T04:30:53.829Z,977.91
2024-03-26T04:31:53.833Z,977.90
2024-03-26T04:32:53.827Z,977.87
2024-03-26T04:33:53.766Z,977.87
2024-03-26T04:34:53.740Z,977.84
2024-03-26T04:35:53.783Z,977.82
2024-03-26T04:36:53.765Z,977.82
2024-03-26T04:37:53.781Z,977.83
2024-03-26T04:38:53.764Z,977.81
2024-03-26T04:39:53.740Z,977.78
2024-03-26T04:40:53.726Z,977.77
2024-03-26T04:41:53.739Z,977.76
2024-03-26T04:42:53.761Z,977.75
2024-03-26T04:43:53.663Z,977.75
2024-03-26T04:44:53.628Z,977.73
2024-03-26T04:45:53.842Z,977.70
2024-03-26T04:46:53.681Z,977.71
2024-03-26T04:47:53.614Z,977.68
2024-03-26T04:48:53.644Z,977.67
2024-03-26T04:49:53.584Z,977.66
2024-03-26T04:50:53.667Z,977.67
2024-03-26T04:51:53.591Z,977.67
2024-03-26T04:52:53.556Z,977.65
2024-03-26T04:53:53.542Z,977.65
2024-03-26T04:54:53.539Z,977.62
2024-03-26T04:55:53.531Z,977.63
2024-03-26T04:56:55.507Z,977.62
2024-03-26T04:57:53.516Z,977.61
2024-03-26T04:58:53.498Z,977.59
2024-03-26T04:59:53.538Z,977.59
2024-03-26T05:00:53.515Z,977.58
2024-03-26T05:01:53.472Z,977.57
2024-03-26T05:02:53.504Z,977.55
2024-03-26T05:03:53.471Z,977.56
2024-03-26T05:04:53.470Z,977.55
2024-03-26T05:05:53.489Z,977.54
2024-03-26T05:06:53.421Z,977.54
2024-03-26T05:07:53.411Z,977.53
2024-03-26T05:08:53.401Z,977.51
2024-03-26T05:09:53.391Z,977.52
2024-03-26T05:10:53.391Z,977.50
2024-03-26T05:11:53.405Z,977.52
2024-03-26T05:12:53.355Z,977.50
2024-03-26T05:13:53.340Z,977.50
2024-03-26T05:14:53.428Z,977.50
2024-03-26T05:15:53.330Z,977.52
2024-03-26T05:16:53.323Z,977.50
2024-03-26T05:17:53.338Z,977.50
2024-03-26T05:18:53.340Z,977.48
2024-03-26T05:19:53.298Z,977.47
2024-03-26T05:20:53.305Z,977.46
2024-03-26T05:21:53.272Z,977.45
2024-03-26T05:22:53.258Z,977.42
2024-03-26T05:23:53.269Z,977.42
2024-03-26T05:24:53.238Z,977.39
2024-03-26T05:25:53.309Z,977.37
2024-03-26T05:26:53.288Z,977.36
2024-03-26T05:27:53.206Z,977.35
2024-03-26T05:28:54.493Z,977.34
2024-03-26T05:29:53.261Z,977.32
2024-03-26T05:30:53.181Z,977.32
2024-03-26T05:31:53.162Z,977.32
2024-03-26T05:32:53.216Z,977.32
2024-03-26T05:33:53.163Z,977.31
2024-03-26T05:34:53.138Z,977.32
2024-03-26T05:35:53.151Z,977.31
2024-03-26T05:36:53.119Z,977.32
2024-03-26T05:37:53.126Z,977.32
2024-03-26T05:38:53.149Z,977.32
2024-03-26T05:39:53.246Z,977.33
2024-03-26T05:40:53.084Z,977.32
2024-03-26T05:41:53.080Z,977.31
2024-03-26T05:42:53.100Z,977.30
2024-03-26T05:43:53.055Z,977.30
2024-03-26T05:44:53.065Z,977.31
2024-03-26T05:45:53.032Z,977.30
2024-03-26T05:46:53.012Z,977.31
2024-03-26T05:47:53.041Z,977.30
2024-03-26T05:48:53.001Z,977.31
2024-03-26T05:49:52.978Z,977.34
2024-03-26T05:50:53.001Z,977.35
2024-03-26T05:51:52.978Z,977.35
2024-03-26T05:52:52.971Z,977.31
2024-03-26T05:53:52.960Z,977.29
2024-03-26T05:54:52.938Z,977.29
2024-03-26T05:55:52.915Z,977.29
2024-03-26T05:56:52.967Z,977.28
2024-03-26T05:57:52.896Z,977.28
2024-03-26T05:58:52.958Z,977.28
2024-03-26T05:59:52.930Z,977.25
2024-03-26T06:00:52.904Z,977.24
2024-03-26T06:01:52.955Z,977.25
2024-03-26T06:02:52.868Z,977.23
2024-03-26T06:03:52.843Z,977.19
2024-03-26T06:04:52.844Z,977.19
2024-03-26T06:05:52.845Z,977.21
2024-03-26T06:06:52.817Z,977.19
2024-03-26T06:07:52.827Z,977.15
2024-03-26T06:08:52.831Z,977.16
2024-03-26T06:09:52.838Z,977.16
2024-03-26T06:10:52.833Z,977.15
2024-03-26T06:11:52.791Z,977.11
2024-03-26T06:12:52.764Z,977.12
2024-03-26T06:13:52.741Z,977.11
2024-03-26T06:14:52.760Z,977.08
2024-03-26T06:15:52.731Z,977.07
2024-03-26T06:16:52.723Z,977.07
2024-03-26T06:17:52.725Z,977.05
2024-03-26T06:18:52.705Z,977.05
2024-03-26T06:19:52.692Z,977.05
2024-03-26T06:20:52.726Z,977.05
2024-03-26T06:21:52.669Z,977.02
2024-03-26T06:22:52.654Z,977.01
2024-03-26T06:23:52.669Z,977.01
2024-03-26T06:24:52.661Z,977.06
2024-03-26T06:25:52.616Z,977.07
2024-03-26T06:26:52.637Z,977.06
2024-03-26T06:27:52.599Z,977.04
2024-03-26T06:28:52.603Z,977.05
2024-03-26T06:29:53.058Z,977.05
2024-03-26T06:30:52.575Z,977.03
2024-03-26T06:31:52.566Z,977.02
2024-03-26T06:32:52.580Z,977.02
2024-03-26T06:33:52.655Z,976.98
2024-03-26T06:34:52.929Z,976.96
2024-03-26T06:35:52.516Z,976.95
2024-03-26T06:36:52.512Z,976.94
2024-03-26T06:37:52.499Z,976.92
2024-03-26T06:38:52.545Z,976.87
2024-03-26T06:39:52.475Z,976.88
2024-03-26T06:40:54.639Z,976.88
2024-03-26T06:41:52.488Z,976.87
2024-03-26T06:42:52.453Z,976.87
2024-03-26T06:43:52.459Z,976.84
2024-03-26T06:44:52.435Z,976.83
2024-03-26T06:45:52.441Z,976.79
2024-03-26T06:46:52.416Z,976.80
2024-03-26T06:47:52.444Z,976.80
2024-03-26T06:48:53.238Z,976.82
2024-03-26T06:49:52.387Z,976.81
2024-03-26T06:50:52.394Z,976.79
2024-03-26T06:51:52.358Z,976.77
2024-03-26T06:52:52.391Z,976.76
2024-03-26T06:53:52.331Z,976.76
2024-03-26T06:54:52.325Z,976.76
2024-03-26T06:55:52.331Z,976.77
2024-03-26T06:56:52.334Z,976.78
2024-03-26T06:57:52.324Z,976.78
2024-03-26T06:58:52.303Z,976.79
2024-03-26T06:59:52.390Z,976.74
2024-03-26T07:00:52.272Z,976.73
2024-03-26T07:01:52.979Z,976.72
2024-03-26T07:02:52.296Z,976.72
2024-03-26T07:03:52.232Z,976.76
2024-03-26T07:04:52.236Z,976.78
2024-03-26T07:05:52.438Z,976.79
2024-03-26T07:06:52.220Z,976.80
2024-03-26T07:07:52.186Z,976.81
2024-03-26T07:08:52.194Z,976.81
2024-03-26T07:09:52.175Z,976.77
2024-03-26T07:10:52.193Z,976.79
2024-03-26T07:11:52.191Z,976.81
2024-03-26T07:12:52.908Z,976.78
2024-03-26T07:13:52.126Z,976.76
2024-03-26T07:14:52.150Z,976.74
2024-03-26T07:15:52.125Z,976.74
2024-03-26T07:16:52.106Z,976.73
2024-03-26T07:17:52.114Z,976.75
2024-03-26T07:18:52.420Z,976.75
2024-03-26T07:19:52.064Z,976.79
2024-03-26T07:20:52.096Z,976.79
2024-03-26T07:21:52.054Z,976.77
2024-03-26T07:22:52.036Z,976.73
2024-03-26T07:23:52.043Z,976.70
2024-03-26T07:24:52.040Z,976.70
2024-03-26T07:25:52.018Z,976.68
2024-03-26T07:26:52.007Z,976.63
2024-03-26T07:27:51.976Z,976.60
2024-03-26T07:28:51.978Z,976.61
2024-03-26T07:29:51.982Z,976.60
2024-03-26T07:30:51.966Z,976.58
2024-03-26T07:31:51.941Z,976.57
2024-03-26T07:32:51.947Z,976.55
2024-03-26T07:33:51.916Z,976.51
2024-03-26T07:34:51.938Z,976.50
2024-03-26T07:35:52.010Z,976.50
2024-03-26T07:36:51.926Z,976.50
2024-03-26T07:37:51.878Z,976.50
2024-03-26T07:38:52.021Z,976.51
2024-03-26T07:39:52.593Z,976.49
2024-03-26T07:40:51.907Z,976.48
2024-03-26T07:41:52.049Z,976.46
2024-03-26T07:42:51.915Z,976.45
2024-03-26T07:43:52.533Z,976.42
2024-03-26T07:44:52.016Z,976.40
2024-03-26T07:45:52.158Z,976.38
2024-03-26T07:46:51.811Z,976.36
2024-03-26T07:47:51.787Z,976.37
2024-03-26T07:48:51.811Z,976.39
2024-03-26T07:49:51.827Z,976.41
2024-03-26T07:50:51.774Z,976.41
2024-03-26T07:51:53.072Z,976.40
2024-03-26T07:52:51.781Z,976.39
2024-03-26T07:53:51.849Z,976.37
2024-03-26T07:54:51.791Z,976.34
2024-03-26T07:55:51.695Z,976.33
2024-03-26T07:56:51.727Z,976.32
2024-03-26T07:57:51.686Z,976.30
2024-03-26T07:58:51.690Z,976.27
2024-03-26T07:59:51.687Z,976.27
2024-03-26T08:00:51.634Z,976.25
2024-03-26T08:01:51.667Z,976.25
2024-03-26T08:02:51.980Z,976.23
2024-03-26T08:03:51.605Z,976.23
2024-03-26T08:04:51.587Z,976.22
2024-03-26T08:05:51.587Z,976.21
2024-03-26T08:06:51.573Z,976.19
2024-03-26T08:07:51.779Z,976.21
2024-03-26T08:08:51.578Z,976.19
2024-03-26T08:09:51.548Z,976.15
2024-03-26T08:10:51.612Z,976.14
2024-03-26T08:11:51.655Z,976.12
2024-03-26T08:12:51.531Z,976.13
2024-03-26T08:13:51.579Z,976.17
2024-03-26T08:14:51.492Z,976.19
2024-03-26T08:15:51.469Z,976.22
2024-03-26T08:16:51.541Z,976.22
2024-03-26T08:17:51.456Z,976.16
2024-03-26T08:18:51.460Z,976.15
2024-03-26T08:19:51.432Z,976.14
2024-03-26T08:20:51.423Z,976.15
2024-03-26T08:21:51.456Z,976.17
2024-03-26T08:22:51.436Z,976.17
2024-03-26T08:23:51.392Z,976.15
2024-03-26T08:24:52.050Z,976.12
2024-03-26T08:25:51.386Z,976.12
2024-03-26T08:26:51.379Z,976.14
2024-03-26T08:27:51.352Z,976.16
2024-03-26T08:28:51.340Z,976.16
2024-03-26T08:29:51.347Z,976.15
2024-03-26T08:30:51.350Z,976.11
2024-03-26T08:31:51.304Z,976.09
2024-03-26T08:32:51.305Z,976.09
2024-03-26T08:33:51.281Z,976.10
2024-03-26T08:34:51.280Z,976.11
2024-03-26T08:35:51.284Z,976.07
2024-03-26T08:36:51.261Z,976.06
2024-03-26T08:37:51.272Z,976.11
2024-03-26T08:38:51.239Z,976.10
2024-03-26T08:39:51.631Z,976.14
2024-03-26T08:40:51.229Z,976.13
2024-03-26T08:41:51.200Z,976.12
2024-03-26T08:42:51.204Z,976.08
2024-03-26T08:43:51.177Z,976.08
2024-03-26T08:44:51.192Z,976.03
2024-03-26T08:45:51.154Z,976.02
2024-03-26T08:46:51.151Z,976.02
2024-03-26T08:47:51.161Z,976.02
2024-03-26T08:48:51.156Z,976.00
2024-03-26T08:49:51.140Z,975.97
2024-03-26T08:50:51.109Z,975.95
2024-03-26T08:51:52.192Z,975.91
2024-03-26T08:52:51.094Z,975.91
2024-03-26T08:53:51.507Z,975.90
2024-03-26T08:54:51.077Z,975.92
2024-03-26T08:55:51.054Z,975.91
2024-03-26T08:56:51.064Z,975.88
2024-03-26T08:57:51.656Z,975.87
2024-03-26T08:58:51.061Z,975.87
2024-03-26T08:59:51.015Z,975.86
2024-03-26T09:00:51.028Z,975.84
2024-03-26T09:01:50.999Z,975.83
2024-03-26T09:02:51.735Z,975.81
2024-03-26T09:03:50.974Z,975.81
2024-03-26T09:04:50.967Z,975.76
2024-03-26T09:05:50.956Z,975.77
2024-03-26T09:06:50.942Z,975.77
2024-03-26T09:07:50.968Z,975.76
2024-03-26T09:08:50.948Z,975.75
2024-03-26T09:09:50.915Z,975.73
2024-03-26T09:10:50.899Z,975.71
2024-03-26T09:11:50.904Z,975.70
2024-03-26T09:12:50.912Z,975.68
2024-03-26T09:13:50.881Z,975.65
2024-03-26T09:14:50.859Z,975.65
2024-03-26T09:15:50.857Z,975.67
2024-03-26T09:16:50.848Z,975.67
2024-03-26T09:17:50.867Z,975.67
2024-03-26T09:18:50.822Z,975.67
2024-03-26T09:19:50.809Z,975.68
2024-03-26T09:20:50.795Z,975.69
2024-03-26T09:21:50.802Z,975.70
2024-03-26T09:22:50.791Z,975.70
2024-03-26T09:23:51.243Z,975.70
2024-03-26T09:24:51.134Z,975.70
2024-03-26T09:25:50.746Z,975.70
2024-03-26T09:26:50.750Z,975.70
2024-03-26T09:27:50.723Z,975.70
2024-03-26T09:28:50.710Z,975.68
2024-03-26T09:29:50.715Z,975.68
2024-03-26T09:30:50.690Z,975.67
2024-03-26T09:31:50.704Z,975.66
2024-03-26T09:32:50.676Z,975.66
2024-03-26T09:33:51.228Z,975.65
2024-03-26T09:34:50.646Z,975.68
2024-03-26T09:35:50.651Z,975.68
2024-03-26T09:36:50.644Z,975.68
2024-03-26T09:37:50.617Z,975.65
2024-03-26T09:38:52.388Z,975.63
2024-03-26T09:39:50.607Z,975.60
2024-03-26T09:40:50.602Z,975.57
2024-03-26T09:41:50.582Z,975.56
2024-03-26T09:42:50.599Z,975.53
2024-03-26T09:43:50.563Z,975.50
2024-03-26T09:45:01.989Z,975.45
2024-03-26T09:45:50.572Z,975.44
2024-03-26T09:46:50.532Z,975.44
2024-03-26T09:47:50.520Z,975.44
2024-03-26T09:48:50.510Z,975.41
2024-03-26T09:49:50.512Z,975.36
2024-03-26T09:50:50.497Z,975.33
2024-03-26T09:51:50.478Z,975.32
2024-03-26T09:52:50.480Z,975.32
2024-03-26T09:53:50.467Z,975.33
2024-03-26T09:54:50.466Z,975.34
2024-03-26T09:55:50.442Z,975.33
2024-03-26T09:56:50.482Z,975.33
2024-03-26T09:57:50.408Z,975.34
2024-03-26T09:58:50.498Z,975.32
2024-03-26T09:59:50.419Z,975.32
2024-03-26T10:00:50.373Z,975.29
2024-03-26T10:01:50.367Z,975.26
2024-03-26T10:02:50.353Z,975.23
2024-03-26T10:03:50.370Z,975.23
2024-03-26T10:04:50.692Z,975.24
2024-03-26T10:05:50.331Z,975.24
2024-03-26T10:06:50.309Z,975.23
2024-03-26T10:07:50.304Z,975.21
2024-03-26T10:08:50.338Z,975.20
2024-03-26T10:09:50.320Z,975.20
2024-03-26T10:10:50.269Z,975.23
2024-03-26T10:11:50.262Z,975.19
2024-03-26T10:12:50.248Z,975.17
2024-03-26T10:13:50.269Z,975.16
2024-03-26T10:14:50.253Z,975.14
2024-03-26T10:15:50.232Z,975.10
2024-03-26T10:16:50.225Z,975.12
2024-03-26T10:17:50.207Z,975.15
2024-03-26T10:18:50.454Z,975.12
2024-03-26T10:19:50.188Z,975.15
2024-03-26T10:20:50.170Z,975.16
2024-03-26T10:21:50.158Z,975.17
2024-03-26T10:22:52.544Z,975.16
2024-03-26T10:23:50.206Z,975.14
2024-03-26T10:24:50.136Z,975.13
2024-03-26T10:25:50.116Z,975.12
2024-03-26T10:26:50.100Z,975.13
2024-03-26T10:27:50.726Z,975.13
2024-03-26T10:28:50.099Z,975.14
2024-03-26T10:29:50.080Z,975.11
2024-03-26T10:30:50.073Z,975.11
2024-03-26T10:31:50.057Z,975.06
2024-03-26T10:32:50.096Z,975.05
2024-03-26T10:33:50.047Z,975.02
2024-03-26T10:34:50.025Z,975.02
2024-03-26T10:35:50.023Z,975.01
2024-03-26T10:36:49.995Z,975.03
2024-03-26T10:37:50.051Z,975.02
2024-03-26T10:38:57.291Z,975.01
2024-03-26T10:39:50.028Z,974.98
2024-03-26T10:40:49.982Z,975.00
2024-03-26T10:41:49.986Z,974.98
2024-03-26T10:42:50.067Z,975.01
2024-03-26T10:43:50.094Z,975.01
2024-03-26T10:44:50.045Z,975.02
2024-03-26T10:46:49.908Z,975.02
2024-03-26T10:47:50.011Z,975.01
2024-03-26T10:48:57.374Z,974.98
2024-03-26T10:49:49.983Z,974.97
2024-03-26T10:50:49.851Z,974.97
2024-03-26T10:51:49.890Z,974.94
2024-03-26T10:52:49.832Z,974.92
2024-03-26T10:53:49.831Z,974.90
2024-03-26T10:54:49.843Z,974.88
2024-03-26T10:55:49.816Z,974.86
2024-03-26T10:56:49.797Z,974.82
2024-03-26T10:57:49.789Z,974.79
2024-03-26T10:58:49.768Z,974.77
2024-03-26T10:59:50.443Z,974.73
2024-03-26T11:00:49.747Z,974.70
2024-03-26T11:01:49.783Z,974.64
2024-03-26T11:02:49.737Z,974.66
2024-03-26T11:03:49.742Z,974.63
2024-03-26T11:04:49.731Z,974.64
2024-03-26T11:05:49.705Z,974.64
2024-03-26T11:06:49.683Z,974.66
2024-03-26T11:07:49.706Z,974.64
2024-03-26T11:08:49.697Z,974.64
2024-03-26T11:09:49.674Z,974.64
2024-03-26T11:10:50.871Z,974.63
2024-03-26T11:11:49.642Z,974.62
2024-03-26T11:12:49.616Z,974.60
2024-03-26T11:13:49.633Z,974.52
2024-03-26T11:14:49.615Z,974.57
2024-03-26T11:15:49.604Z,974.56
2024-03-26T11:16:49.587Z,974.54
2024-03-26T11:17:49.737Z,974.52
2024-03-26T11:18:49.574Z,974.51
2024-03-26T11:19:49.552Z,974.46
2024-03-26T11:20:49.539Z,974.46
2024-03-26T11:21:51.619Z,974.46
2024-03-26T11:22:49.535Z,974.44
2024-03-26T11:23:49.532Z,974.43
2024-03-26T11:24:49.497Z,974.42
2024-03-26T11:25:49.517Z,974.37
2024-03-26T11:26:49.484Z,974.37
2024-03-26T11:27:49.494Z,974.35
2024-03-26T11:28:49.456Z,974.36
2024-03-26T11:29:49.462Z,974.36
2024-03-26T11:30:49.439Z,974.36
2024-03-26T11:31:49.429Z,974.34
2024-03-26T11:32:49.424Z,974.32
2024-03-26T11:33:49.416Z,974.34
2024-03-26T11:34:49.401Z,974.37
2024-03-26T11:35:49.392Z,974.36
2024-03-26T11:36:49.392Z,974.36
2024-03-26T11:37:49.382Z,974.35
2024-03-26T11:38:49.344Z,974.33
2024-03-26T11:39:49.342Z,974.31
2024-03-26T11:40:49.363Z,974.30
2024-03-26T11:41:49.352Z,974.30
2024-03-26T11:42:49.310Z,974.30
2024-03-26T11:43:49.302Z,974.29
2024-03-26T11:44:49.351Z,974.27
2024-03-26T11:45:49.298Z,974.25
2024-03-26T11:46:49.302Z,974.21
2024-03-26T11:47:49.290Z,974.21
2024-03-26T11:48:49.262Z,974.22
2024-03-26T11:49:49.234Z,974.22
2024-03-26T11:50:49.221Z,974.20
2024-03-26T11:51:49.220Z,974.25
2024-03-26T11:52:49.217Z,974.21
2024-03-26T11:53:49.198Z,974.20
2024-03-26T11:54:49.179Z,974.23
2024-03-26T11:55:49.214Z,974.23
2024-03-26T11:56:49.158Z,974.23
2024-03-26T11:57:49.149Z,974.22
2024-03-26T11:58:49.164Z,974.19
2024-03-26T11:59:49.137Z,974.17
2024-03-26T12:00:49.143Z,974.15
2024-03-26T12:01:49.119Z,974.14
2024-03-26T12:02:49.095Z,974.11
2024-03-26T12:03:49.091Z,974.09
2024-03-26T12:04:49.088Z,974.05
2024-03-26T12:05:49.087Z,974.01
2024-03-26T12:06:49.054Z,973.98
2024-03-26T12:07:49.048Z,973.97
2024-03-26T12:08:49.064Z,973.94
2024-03-26T12:09:49.127Z,973.93
2024-03-26T12:10:49.006Z,973.92
2024-03-26T12:11:49.005Z,973.90
2024-03-26T12:12:48.988Z,973.90
2024-03-26T12:13:49.011Z,973.90
2024-03-26T12:14:48.981Z,973.89
2024-03-26T12:15:48.964Z,973.88
2024-03-26T12:16:48.953Z,973.87
2024-03-26T12:17:48.946Z,973.85
2024-03-26T12:18:48.938Z,973.82
2024-03-26T12:19:49.116Z,973.80
2024-03-26T12:20:48.985Z,973.79
2024-03-26T12:21:48.899Z,973.78
2024-03-26T12:22:48.925Z,973.78
2024-03-26T12:23:48.897Z,973.74
2024-03-26T12:24:48.868Z,973.72
2024-03-26T12:25:48.898Z,973.71
2024-03-26T12:26:48.863Z,973.67
2024-03-26T12:27:48.842Z,973.63
2024-03-26T12:28:48.901Z,973.60
2024-03-26T12:29:48.824Z,973.57